Decoded Metar for UUBW ( in ) (IATA:) | Meteo·Mobile Aviation Weather
aviador You're here:

UUBW Decoded Metar

in
Report Time2019-02-19 13:00:00
UTC Time2019-02-19 13:18:24
Flight Rules vfr VFR
Wind240° at 8 kt
W.Rank240° ranks 6
Current wind is above 240° avg. (6.5)
Visibility9999 m
Phenomena:N/A
Clouds:N/A
Expected CloudBase > 4,800 ft AGL from Temp-Dew spread
CeilingNone
Temp02°C
Dew Point-10°C (41% RH)
AAT-3.9°C
QNH1012 hPa
Raw Report
METAR UUBW 191300Z 24004MPS CAVOK 02/M10 Q1012 R30/010055 NOSIG=

Extra information for UUBW:More info

Social comments